Time;durP1;ratioP1;P1;durP2;ratioP2;P2;SDS_P1;SDS_P2;PMS_P1;PMS_P2;Temp;Humidity;BMP_temperature;BMP_pressure;BME280_temperature;BME280_humidity;BME280_pressure;Samples;Min_cycle;Max_cycle;Signal;HPM_P1;HPM_P2
2021/11/02 00:01:45;;;;;;;5.32;3.05;;;22.80;72.60;;;;;;5051126;28;20559;-67
2021/11/02 00:04:13;;;;;;;5.20;2.63;;;22.90;72.50;;;;;;5050834;28;20067;-64
2021/11/02 00:06:40;;;;;;;3.78;2.60;;;23.00;71.40;;;;;;5051280;28;20137;-68
2021/11/02 00:09:08;;;;;;;5.30;2.17;;;23.00;72.30;;;;;;5051332;28;20475;-66
2021/11/02 00:11:36;;;;;;;3.72;2.45;;;23.00;71.10;;;;;;5054162;28;20028;-68
2021/11/02 00:14:08;;;;;;;3.95;2.30;;;23.00;70.10;;;;;;5055091;28;20056;-66
2021/11/02 00:16:36;;;;;;;4.20;2.35;;;23.10;70.70;;;;;;5055064;28;20132;-68
2021/11/02 00:19:06;;;;;;;4.70;2.85;;;23.00;71.50;;;;;;5055004;28;20395;-65
2021/11/02 00:21:41;;;;;;;5.55;2.55;;;23.00;71.70;;;;;;5064655;28;20169;-67
2021/11/02 00:24:12;;;;;;;4.68;2.30;;;23.10;71.50;;;;;;5074909;28;20451;-66
2021/11/02 00:26:40;;;;;;;2.33;2.00;;;23.20;69.60;;;;;;5074784;28;20032;-65
2021/11/02 00:29:08;;;;;;;4.63;2.42;;;23.30;70.00;;;;;;5074684;28;20102;-69
2021/11/02 00:31:35;;;;;;;3.25;2.28;;;23.30;71.20;;;;;;5074850;28;20024;-65
2021/11/02 00:34:03;;;;;;;3.83;1.83;;;23.30;70.80;;;;;;5074739;28;20059;-68
2021/11/02 00:36:32;;;;;;;3.65;2.70;;;23.30;69.20;;;;;;5073923;28;20051;-66
2021/11/02 00:38:59;;;;;;;3.55;1.90;;;23.30;71.10;;;;;;5074167;28;20024;-65
2021/11/02 00:41:26;;;;;;;4.20;2.13;;;23.40;70.60;;;;;;5074294;28;20455;-68
2021/11/02 00:43:55;;;;;;;3.38;2.17;;;23.40;70.40;;;;;;5074040;28;20051;-67
2021/11/02 00:46:33;;;;;;;3.42;2.10;;;23.30;70.30;;;;;;5073965;28;20108;-66
2021/11/02 00:49:02;;;;;;;3.30;2.05;;;23.40;70.90;;;;;;5074113;28;20498;-67
2021/11/02 00:51:30;;;;;;;5.40;2.58;;;23.40;70.20;;;;;;5073855;28;20112;-67
2021/11/02 00:53:57;;;;;;;4.53;2.60;;;23.40;70.90;;;;;;5073836;28;20024;-67
2021/11/02 00:56:25;;;;;;;3.60;1.90;;;23.40;71.10;;;;;;5073906;28;20048;-67
2021/11/02 00:58:53;;;;;;;4.68;2.20;;;23.40;70.30;;;;;;5073371;28;20027;-67
2021/11/02 01:01:21;;;;;;;3.13;1.80;;;23.40;71.20;;;;;;5073894;28;20032;-68
2021/11/02 01:03:49;;;;;;;4.72;2.15;;;23.40;69.30;;;;;;5073665;28;20420;-68
2021/11/02 01:06:16;;;;;;;2.33;2.13;;;23.50;69.60;;;;;;5072335;28;20100;-69
2021/11/02 01:08:43;;;;;;;3.00;2.05;;;23.50;70.50;;;;;;5073892;28;20127;-69
2021/11/02 01:11:11;;;;;;;5.70;2.25;;;23.50;70.20;;;;;;5073598;28;20402;-65
2021/11/02 01:13:39;;;;;;;4.45;2.05;;;23.70;69.10;;;;;;5073512;28;20024;-66
2021/11/02 01:16:07;;;;;;;5.13;2.05;;;23.50;70.80;;;;;;5073928;28;20033;-68
2021/11/02 01:18:34;;;;;;;3.25;1.98;;;23.60;69.60;;;;;;5072368;28;20313;-68
2021/11/02 01:21:02;;;;;;;7.35;2.38;;;23.50;70.80;;;;;;5073030;28;20436;-68
2021/11/02 01:23:32;;;;;;;5.78;2.38;;;23.60;69.30;;;;;;5073499;28;20108;-68
2021/11/02 01:26:00;;;;;;;6.50;2.08;;;23.70;69.40;;;;;;5073680;28;20033;-65
2021/11/02 01:28:27;;;;;;;7.60;2.05;;;23.70;69.90;;;;;;5073403;28;20024;-67
2021/11/02 01:30:55;;;;;;;2.40;1.60;;;23.60;70.10;;;;;;5073665;28;20453;-67
2021/11/02 01:33:22;;;;;;;3.30;1.80;;;23.70;69.90;;;;;;5073548;28;20028;-67
2021/11/02 01:35:50;;;;;;;5.35;2.30;;;23.60;70.90;;;;;;5073271;28;20092;-67
2021/11/02 01:38:20;;;;;;;2.70;1.90;;;23.70;70.20;;;;;;5073416;28;20099;-65
2021/11/02 01:40:48;;;;;;;3.33;1.83;;;23.80;69.20;;;;;;5073522;28;20021;-65
2021/11/02 01:43:16;;;;;;;2.85;1.73;;;23.80;70.00;;;;;;5073376;28;20028;-63
2021/11/02 01:45:43;;;;;;;6.15;1.80;;;23.70;69.60;;;;;;5073000;28;20020;-66
2021/11/02 01:48:22;;;;;;;3.92;1.80;;;23.80;69.50;;;;;;5072903;28;20032;-66
2021/11/02 01:50:49;;;;;;;5.72;1.77;;;23.80;69.10;;;;;;5073120;28;20028;-64
2021/11/02 01:53:17;;;;;;;6.30;2.30;;;23.80;69.30;;;;;;5073030;28;20099;-67
2021/11/02 01:55:45;;;;;;;2.22;1.40;;;23.80;68.70;;;;;;5072490;28;20403;-68
2021/11/02 01:58:14;;;;;;;4.40;1.88;;;23.80;68.90;;;;;;5072713;28;20036;-64
2021/11/02 02:00:45;;;;;;;2.65;1.52;;;23.90;68.30;;;;;;5073380;28;20017;-68
2021/11/02 02:03:57;;;;;;;2.60;1.45;;;23.90;69.30;;;;;;5073205;28;20029;-65
2021/11/02 02:06:29;;;;;;;2.90;1.50;;;23.90;68.60;;;;;;5070173;28;20170;-66
2021/11/02 02:09:06;;;;;;;4.45;1.65;;;23.90;68.50;;;;;;5073373;28;20040;-65
2021/11/02 02:11:51;;;;;;;2.75;1.20;;;23.90;68.20;;;;;;5073406;28;20016;-67
2021/11/02 02:14:24;;;;;;;4.25;1.33;;;23.80;69.00;;;;;;5073181;28;20040;-66
2021/11/02 02:16:54;;;;;;;2.05;1.30;;;23.90;69.60;;;;;;5073395;28;20181;-63
2021/11/02 02:19:39;;;;;;;2.95;1.60;;;23.90;69.20;;;;;;5072053;28;20036;-66
2021/11/02 02:22:07;;;;;;;2.78;1.20;;;23.80;69.30;;;;;;5073431;28;20025;-67
2021/11/02 02:24:46;;;;;;;3.78;1.40;;;23.80;70.30;;;;;;5073203;28;20191;-67
2021/11/02 02:27:35;;;;;;;2.55;1.30;;;23.80;70.30;;;;;;5072584;28;20032;-64
2021/11/02 02:30:08;;;;;;;2.47;1.13;;;23.80;69.10;;;;;;5072755;28;20043;-65
2021/11/02 02:32:39;;;;;;;3.33;1.23;;;23.90;69.50;;;;;;5070773;28;20021;-66
2021/11/02 02:35:11;;;;;;;3.60;1.13;;;23.90;68.80;;;;;;5072632;28;20120;-63
2021/11/02 02:37:38;;;;;;;;;;;23.90;69.10;;;;;;5073180;28;20099;-68
2021/11/02 02:40:08;;;;;;;2.97;1.42;;;24.00;67.70;;;;;;5072548;28;19911;-67
2021/11/02 02:42:37;;;;;;;2.85;1.30;;;24.00;68.70;;;;;;5072194;28;20162;-63
2021/11/02 02:45:07;;;;;;;2.15;1.25;;;24.10;67.70;;;;;;5072270;28;20020;-65
2021/11/02 02:47:37;;;;;;;3.63;1.20;;;24.10;68.10;;;;;;5072376;28;20017;-65
2021/11/02 02:50:09;;;;;;;3.65;1.40;;;24.10;68.20;;;;;;5072178;28;20149;-67
2021/11/02 02:52:38;;;;;;;4.47;1.25;;;24.20;68.10;;;;;;5072686;28;20040;-67
2021/11/02 02:55:06;;;;;;;2.38;1.02;;;24.20;68.60;;;;;;5072106;28;20221;-68
2021/11/02 02:57:35;;;;;;;1.80;1.40;;;24.20;68.00;;;;;;5070839;28;20479;-68
2021/11/02 03:00:04;;;;;;;8.30;1.55;;;24.20;66.80;;;;;;5072409;28;20025;-67
2021/11/02 03:02:32;;;;;;;2.80;1.48;;;24.30;66.40;;;;;;5072110;28;20035;-67
2021/11/02 03:05:07;;;;;;;2.70;1.52;;;24.30;65.90;;;;;;5072180;28;20113;-67
2021/11/02 03:07:36;;;;;;;3.72;1.10;;;24.40;66.80;;;;;;5072146;28;20304;-68
2021/11/02 03:10:05;;;;;;;2.35;1.10;;;24.40;66.90;;;;;;5072231;28;20028;-63
2021/11/02 03:12:36;;;;;;;2.58;1.17;;;24.30;68.00;;;;;;5072093;28;20115;-68
2021/11/02 03:15:36;;;;;;;;;;;;;;;;;;;;;
2021/11/02 03:18:17;;;;;;;2.63;1.50;;;24.30;68.20;;;;;;5072471;28;20112;-67
2021/11/02 03:51:12;;;;;;;4.20;1.48;;;24.20;68.20;;;;;;5075263;28;20108;-62
2021/11/02 04:23:59;;;;;;;3.13;1.48;;;24.10;69.30;;;;;;5076386;28;20032;-66
2021/11/02 05:12:00;;;;;;;2.55;0.95;;;23.90;69.90;;;;;;5032339;28;20037;-68
2021/11/02 06:00:11;;;;;;;2.58;1.10;;;23.70;71.40;;;;;;5072361;28;20024;-66
2021/11/02 06:11:08;;;;;;;3.45;1.45;;;23.60;71.60;;;;;;5072766;28;20097;-72
2021/11/02 06:28:00;;;;;;;3.13;1.23;;;23.40;72.80;;;;;;5073393;28;20403;-68
2021/11/02 06:30:50;;;;;;;2.53;1.33;;;23.40;73.20;;;;;;5072922;28;20036;-70
2021/11/02 06:36:09;;;;;;;3.22;1.10;;;23.40;73.40;;;;;;5072566;28;20024;-69
2021/11/02 07:19:17;;;;;;;4.03;1.30;;;23.20;75.10;;;;;;5073677;28;20442;-69
2021/11/02 08:46:31;;;;;;;1.25;0.98;;;22.70;78.40;;;;;;5070689;28;20080;-63
2021/11/02 08:49:02;;;;;;;3.65;1.10;;;22.60;78.50;;;;;;5074380;28;20037;-66
2021/11/02 08:51:47;;;;;;;2.50;1.00;;;22.60;79.10;;;;;;5073530;28;20024;-62
2021/11/02 08:54:36;;;;;;;3.90;1.42;;;22.60;78.90;;;;;;5058901;28;20031;-65
2021/11/02 08:57:08;;;;;;;6.25;1.20;;;22.60;79.00;;;;;;5061227;28;20058;-63
2021/11/02 09:00:04;;;;;;;7.15;1.30;;;22.50;79.10;;;;;;5075098;28;20025;-60
2021/11/02 09:02:55;;;;;;;8.00;1.70;;;22.50;80.50;;;;;;5063260;28;20486;-63
2021/11/02 09:05:52;;;;;;;3.53;1.15;;;22.60;82.60;;;;;;5071384;28;20045;-64
2021/11/02 09:09:08;;;;;;;;;;;;;;;;;;;;;
2021/11/02 09:11:56;;;;;;;3.22;1.38;;;22.50;81.20;;;;;;5060646;28;20055;-65
2021/11/02 09:15:23;;;;;;;4.47;1.25;;;22.50;80.80;;;;;;5028236;28;20029;-62
2021/11/02 09:18:04;;;;;;;2.47;1.10;;;22.50;80.90;;;;;;5062958;28;20039;-61
2021/11/02 09:20:53;;;;;;;4.07;1.30;;;22.50;81.20;;;;;;5070018;28;20036;-67
2021/11/02 09:23:34;;;;;;;3.28;1.02;;;22.50;81.40;;;;;;5065873;28;20028;-62
2021/11/02 09:26:17;;;;;;;4.93;1.90;;;22.50;81.30;;;;;;5052050;28;20026;-61
2021/11/02 09:28:47;;;;;;;3.50;1.27;;;22.50;81.70;;;;;;5067725;28;20040;-60
2021/11/02 09:34:08;;;;;;;3.90;0.98;;;22.50;81.40;;;;;;5055442;28;20498;-61
2021/11/02 09:37:15;;;;;;;5.00;2.00;;;22.50;81.50;;;;;;5070721;28;20103;-61
2021/11/02 09:40:00;;;;;;;4.95;1.00;;;22.50;81.40;;;;;;5071322;28;20024;-62
2021/11/02 09:43:02;;;;;;;7.82;1.23;;;22.50;81.30;;;;;;5066356;28;20043;-63
2021/11/02 09:46:21;;;;;;;4.93;1.52;;;22.50;81.10;;;;;;5069163;28;20112;-60
2021/11/02 09:49:10;;;;;;;3.47;1.20;;;22.50;81.10;;;;;;5071771;28;20032;-61
2021/11/02 09:52:12;;;;;;;3.03;1.15;;;22.50;81.40;;;;;;5066274;28;20467;-60
2021/11/02 09:55:16;;;;;;;2.88;0.98;;;22.40;81.30;;;;;;5069798;28;20040;-60
2021/11/02 09:58:11;;;;;;;5.03;1.10;;;22.40;81.20;;;;;;5070354;28;20638;-59
2021/11/02 10:01:06;;;;;;;4.05;0.80;;;22.40;81.20;;;;;;5070043;28;20048;-61
2021/11/02 10:03:52;;;;;;;3.45;1.20;;;22.40;81.20;;;;;;5066189;28;20103;-65
2021/11/02 10:06:29;;;;;;;1.52;0.60;;;22.40;81.30;;;;;;5071549;28;20044;-62
2021/11/02 10:09:08;;;;;;;3.55;0.88;;;22.40;81.20;;;;;;5068422;28;20024;-60
2021/11/02 10:12:22;;;;;;;6.22;1.10;;;22.40;81.20;;;;;;5065647;28;20035;-62
2021/11/02 10:15:35;;;;;;;4.10;1.00;;;22.40;81.20;;;;;;4984488;28;20405;-62
2021/11/02 10:18:47;;;;;;;;;;;;;;;;;;;;;
2021/11/02 10:22:00;;;;;;;5.13;1.50;;;22.30;81.40;;;;;;5063813;28;20525;-58
2021/11/02 10:25:12;;;;;;;3.30;0.90;;;22.20;81.80;;;;;;5070127;28;20024;-58
2021/11/02 10:28:36;;;;;;;9.38;1.92;;;22.20;81.60;;;;;;5068098;28;20093;-56
2021/11/02 10:31:11;;;;;;;3.75;0.98;;;22.20;81.90;;;;;;5069926;28;20033;-61
2021/11/02 10:33:48;;;;;;;6.57;0.90;;;22.20;81.70;;;;;;5065944;28;20359;-61
2021/11/02 10:36:34;;;;;;;3.72;0.90;;;22.20;81.80;;;;;;5066779;28;20028;-68
2021/11/02 10:39:11;;;;;;;3.70;1.10;;;22.20;81.80;;;;;;5068395;28;20034;-63
2021/11/02 10:41:54;;;;;;;2.75;1.08;;;22.20;81.80;;;;;;5070331;28;20017;-60
2021/11/02 10:44:29;;;;;;;3.40;0.80;;;22.20;81.60;;;;;;5067279;28;20062;-63
2021/11/02 10:47:09;;;;;;;2.30;0.80;;;22.10;81.60;;;;;;5068537;28;20025;-62
2021/11/02 10:50:05;;;;;;;4.32;0.75;;;22.10;81.70;;;;;;5072167;28;20383;-63
2021/11/02 10:52:33;;;;;;;3.83;1.05;;;22.10;81.80;;;;;;5068708;28;20028;-62
2021/11/02 10:55:13;;;;;;;5.18;0.98;;;22.10;82.00;;;;;;5071338;28;20086;-63
2021/11/02 10:57:55;;;;;;;3.00;0.70;;;22.10;81.80;;;;;;5072199;28;20032;-63
2021/11/02 11:00:23;;;;;;;5.00;0.88;;;22.10;81.90;;;;;;5069020;28;20047;-64
2021/11/02 11:02:56;;;;;;;3.78;1.15;;;22.10;81.80;;;;;;5070610;28;20491;-65
2021/11/02 11:05:29;;;;;;;3.55;1.17;;;22.10;81.70;;;;;;5071518;28;20031;-62
2021/11/02 11:08:08;;;;;;;3.92;0.80;;;22.10;81.90;;;;;;5071370;28;20033;-60
2021/11/02 11:10:36;;;;;;;2.85;0.88;;;22.10;81.80;;;;;;5071470;28;20498;-61
2021/11/02 11:13:08;;;;;;;2.75;0.82;;;22.00;81.80;;;;;;5068513;28;20486;-61
2021/11/02 11:15:35;;;;;;;5.28;1.02;;;22.00;81.80;;;;;;5070124;28;20449;-63
2021/11/02 11:18:06;;;;;;;2.15;0.70;;;22.00;81.80;;;;;;5071393;28;20028;-65
2021/11/02 11:20:39;;;;;;;2.72;0.80;;;22.00;81.80;;;;;;5071150;28;20029;-63
2021/11/02 11:23:08;;;;;;;3.13;1.25;;;22.00;81.60;;;;;;5072135;28;20115;-64
2021/11/02 11:26:00;;;;;;;1.35;0.68;;;21.90;81.60;;;;;;5071926;28;20035;-63
2021/11/02 11:28:39;;;;;;;2.60;0.80;;;22.00;81.60;;;;;;5071776;28;20105;-65
2021/11/02 11:31:08;;;;;;;2.72;1.23;;;21.90;81.60;;;;;;5072275;28;20166;-63
2021/11/02 11:33:37;;;;;;;1.63;0.60;;;21.90;81.60;;;;;;5072188;28;20025;-63
2021/11/02 11:36:06;;;;;;;2.13;1.05;;;21.90;81.60;;;;;;5072020;28;20032;-65
2021/11/02 11:38:38;;;;;;;2.70;0.70;;;21.90;81.60;;;;;;5072028;28;20033;-62
2021/11/02 11:41:06;;;;;;;;;;;21.80;81.60;;;;;;5072624;28;20557;-61
2021/11/02 11:43:34;;;;;;;3.10;1.30;;;21.80;81.60;;;;;;5071953;28;19944;-61
2021/11/02 11:46:04;;;;;;;3.38;1.02;;;21.80;81.80;;;;;;5072227;28;20028;-62
2021/11/02 11:48:33;;;;;;;2.97;0.95;;;21.80;81.70;;;;;;5071459;28;20064;-62
2021/11/02 11:51:03;;;;;;;3.47;1.23;;;21.80;81.70;;;;;;5071268;28;20183;-62
2021/11/02 11:53:38;;;;;;;2.45;0.80;;;21.80;81.70;;;;;;5071759;28;20016;-62
2021/11/02 11:56:09;;;;;;;1.88;0.70;;;21.80;82.00;;;;;;5071732;28;20054;-64
2021/11/02 11:58:54;;;;;;;1.67;0.70;;;21.80;81.90;;;;;;5071943;28;20027;-66
2021/11/02 12:05:27;;;;;;;2.63;0.70;;;21.70;82.30;;;;;;5004119;28;20065;-65
2021/11/02 12:08:40;;;;;;;3.50;0.90;;;21.70;82.40;;;;;;5026811;28;20450;-61
2021/11/02 12:11:15;;;;;;;2.42;0.80;;;21.70;82.50;;;;;;5076032;28;20218;-60
2021/11/02 12:13:44;;;;;;;2.08;0.80;;;21.70;82.50;;;;;;5075504;28;20025;-58
2021/11/02 12:16:22;;;;;;;5.88;1.40;;;21.70;82.50;;;;;;5075444;28;20028;-62
2021/11/02 12:19:18;;;;;;;3.75;1.10;;;21.70;82.50;;;;;;5075159;28;20052;-65
2021/11/02 12:22:00;;;;;;;4.03;1.00;;;21.70;82.40;;;;;;5064217;28;20037;-61
2021/11/02 12:24:33;;;;;;;2.55;0.85;;;21.70;82.20;;;;;;5075494;28;20080;-63
2021/11/02 12:27:19;;;;;;;2.60;0.65;;;21.60;82.20;;;;;;5075221;28;20028;-61
2021/11/02 12:29:48;;;;;;;2.45;0.85;;;21.60;82.10;;;;;;5074604;28;20036;-64
2021/11/02 12:32:22;;;;;;;2.17;0.60;;;21.60;82.10;;;;;;5074922;28;20036;-67
2021/11/02 12:35:05;;;;;;;3.70;1.00;;;21.60;82.10;;;;;;5075141;28;20028;-66
2021/11/02 12:37:45;;;;;;;5.13;1.30;;;21.60;82.20;;;;;;5073515;28;20041;-61
2021/11/02 12:40:17;;;;;;;3.05;0.88;;;21.60;82.30;;;;;;5074942;28;20033;-66
2021/11/02 12:42:44;;;;;;;;;;;21.50;82.20;;;;;;5075478;28;20021;-64
2021/11/02 12:45:18;;;;;;;2.67;0.85;;;21.60;82.30;;;;;;5074887;28;19911;-66
2021/11/02 12:47:47;;;;;;;2.88;0.98;;;21.60;82.30;;;;;;5074359;28;20107;-66
2021/11/02 12:50:17;;;;;;;8.20;0.93;;;21.50;82.20;;;;;;5074877;28;20132;-66
2021/11/02 12:52:46;;;;;;;4.05;1.35;;;21.50;82.30;;;;;;5074351;28;20023;-66
2021/11/02 12:55:23;;;;;;;2.47;0.90;;;21.50;82.30;;;;;;5074704;28;20453;-67
2021/11/02 12:58:00;;;;;;;4.78;1.25;;;21.50;82.40;;;;;;5075341;28;20517;-70
2021/11/02 13:00:40;;;;;;;2.45;0.85;;;21.40;82.40;;;;;;5074884;28;20024;-57
2021/11/02 13:03:11;;;;;;;2.28;0.80;;;21.50;82.60;;;;;;5074815;28;20032;-67
2021/11/02 13:05:42;;;;;;;2.22;0.77;;;21.50;82.70;;;;;;5073231;28;20025;-65
2021/11/02 13:08:13;;;;;;;3.60;1.02;;;21.50;82.70;;;;;;5075054;28;20116;-63
2021/11/02 13:10:44;;;;;;;4.85;1.23;;;21.40;82.60;;;;;;5063080;28;20094;-63
2021/11/02 13:13:17;;;;;;;2.28;1.00;;;21.40;82.70;;;;;;5053862;28;20048;-62
2021/11/02 13:15:55;;;;;;;4.28;1.33;;;21.40;82.80;;;;;;5068143;28;20139;-64
2021/11/02 13:18:48;;;;;;;5.53;1.15;;;21.40;82.70;;;;;;5064289;28;20074;-59
2021/11/02 13:21:30;;;;;;;2.63;0.80;;;21.40;82.70;;;;;;5069028;28;20064;-62
2021/11/02 13:24:06;;;;;;;4.90;1.15;;;21.30;82.70;;;;;;5069755;28;20036;-58
2021/11/02 13:26:40;;;;;;;2.85;1.00;;;21.40;82.80;;;;;;5071724;28;20538;-60
2021/11/02 13:29:28;;;;;;;2.80;0.80;;;21.30;82.70;;;;;;5068777;28;20037;-64
2021/11/02 13:31:56;;;;;;;3.90;0.98;;;21.40;82.80;;;;;;5068768;28;20031;-60
2021/11/02 13:34:35;;;;;;;2.45;0.70;;;21.30;82.80;;;;;;5070587;28;20502;-60
2021/11/02 13:37:11;;;;;;;2.92;0.90;;;21.30;82.80;;;;;;5071085;28;20119;-61
2021/11/02 13:39:58;;;;;;;3.13;0.93;;;21.30;82.90;;;;;;5067506;28;20032;-63
2021/11/02 13:42:49;;;;;;;4.75;1.00;;;21.30;82.80;;;;;;5068316;28;20027;-66
2021/11/02 13:45:20;;;;;;;1.52;0.70;;;21.30;82.90;;;;;;5058912;28;21778;-61
2021/11/02 13:47:47;;;;;;;2.13;0.80;;;21.30;82.80;;;;;;5063688;28;20028;-65
2021/11/02 13:50:15;;;;;;;4.18;1.20;;;21.30;82.80;;;;;;5068497;28;20124;-62
2021/11/02 13:52:43;;;;;;;4.93;1.13;;;21.30;82.70;;;;;;5070329;28;20025;-61
2021/11/02 13:55:11;;;;;;;2.00;0.90;;;21.20;82.70;;;;;;5071124;28;20059;-61
2021/11/02 13:57:39;;;;;;;2.92;0.90;;;21.30;82.70;;;;;;5067643;28;20029;-58
2021/11/02 14:00:07;;;;;;;2.83;0.98;;;21.20;82.60;;;;;;5070604;28;20032;-62
2021/11/02 14:02:45;;;;;;;2.85;0.85;;;21.20;82.60;;;;;;5070867;28;20029;-58
2021/11/02 14:05:13;;;;;;;3.42;1.00;;;21.30;82.70;;;;;;5069851;28;20062;-56
2021/11/02 14:07:43;;;;;;;3.15;0.98;;;21.30;82.60;;;;;;5066836;28;20039;-62
2021/11/02 14:10:11;;;;;;;3.30;1.08;;;21.20;82.50;;;;;;5071074;28;20503;-60
2021/11/02 14:12:54;;;;;;;4.07;0.82;;;21.20;82.50;;;;;;5069259;28;20543;-59
2021/11/02 14:15:23;;;;;;;3.70;0.80;;;21.20;82.50;;;;;;5067569;28;20093;-58
2021/11/02 14:18:07;;;;;;;3.35;0.90;;;21.20;82.60;;;;;;5066945;28;20070;-61
2021/11/02 14:20:48;;;;;;;2.75;0.95;;;21.20;82.50;;;;;;5070411;28;20028;-61
2021/11/02 14:23:19;;;;;;;3.28;0.75;;;21.20;82.60;;;;;;5067019;28;20029;-59
2021/11/02 14:25:47;;;;;;;4.88;1.05;;;21.20;82.60;;;;;;5070294;28;20032;-59
2021/11/02 14:28:35;;;;;;;2.97;0.73;;;21.20;82.60;;;;;;5066887;28;20029;-59
2021/11/02 14:31:02;;;;;;;2.00;0.75;;;21.20;82.60;;;;;;5068473;28;20120;-60
2021/11/02 14:33:45;;;;;;;1.65;0.70;;;21.10;82.60;;;;;;5070122;28;20031;-59
2021/11/02 14:36:14;;;;;;;4.75;0.93;;;21.20;82.50;;;;;;5070379;28;20031;-62
2021/11/02 14:38:48;;;;;;;2.28;0.90;;;21.10;82.50;;;;;;5066043;28;20562;-62
2021/11/02 14:41:34;;;;;;;3.88;0.88;;;21.10;82.50;;;;;;5070677;28;20060;-60
2021/11/02 14:44:16;;;;;;;2.42;1.00;;;21.10;82.50;;;;;;5067620;28;20032;-63
2021/11/02 14:46:43;;;;;;;;;;;21.20;82.60;;;;;;5070554;28;20309;-60
2021/11/02 14:49:30;;;;;;;4.00;1.02;;;21.10;82.50;;;;;;5067009;28;19916;-63
2021/11/02 14:51:59;;;;;;;2.17;0.80;;;21.20;82.60;;;;;;5068034;28;20025;-66
2021/11/02 14:54:30;;;;;;;1.60;0.70;;;21.10;82.50;;;;;;5070508;28;20029;-63
2021/11/02 14:57:17;;;;;;;3.78;0.88;;;21.20;82.70;;;;;;5069752;28;20028;-64
2021/11/02 14:59:55;;;;;;;5.03;1.00;;;21.10;82.50;;;;;;5067825;28;20036;-66
2021/11/02 15:02:42;;;;;;;2.45;0.80;;;21.10;82.50;;;;;;5068673;28;20402;-67
2021/11/02 15:05:13;;;;;;;1.30;0.70;;;21.10;82.50;;;;;;5068874;28;20029;-64
2021/11/02 15:07:46;;;;;;;1.63;0.77;;;21.10;82.50;;;;;;5065770;28;20066;-61
2021/11/02 15:10:16;;;;;;;2.28;0.88;;;21.10;82.50;;;;;;5070279;28;20048;-62
2021/11/02 15:12:45;;;;;;;2.22;0.60;;;21.10;82.40;;;;;;5070432;28;20109;-62
2021/11/02 15:15:13;;;;;;;1.42;0.70;;;21.10;82.40;;;;;;5072730;28;20028;-60
2021/11/02 15:17:40;;;;;;;3.17;0.98;;;21.10;82.40;;;;;;5072734;28;20040;-66
2021/11/02 15:20:09;;;;;;;3.63;0.93;;;21.10;82.40;;;;;;5072326;28;20048;-61
2021/11/02 15:22:36;;;;;;;2.33;0.57;;;21.10;82.40;;;;;;5072816;28;20510;-63
2021/11/02 15:25:11;;;;;;;2.15;0.68;;;21.10;82.40;;;;;;5071202;28;20104;-64
2021/11/02 15:27:40;;;;;;;2.00;0.65;;;21.00;82.30;;;;;;5072813;28;20028;-62
2021/11/02 15:30:11;;;;;;;4.28;0.70;;;21.10;82.40;;;;;;5073157;28;20024;-64
2021/11/02 15:32:43;;;;;;;3.17;0.98;;;21.10;82.30;;;;;;5072525;28;20078;-65
2021/11/02 15:35:14;;;;;;;;;;;21.10;82.30;;;;;;5073435;28;20026;-67
2021/11/02 15:37:47;;;;;;;2.22;0.65;;;21.00;82.30;;;;;;5072629;28;19914;-66
2021/11/02 15:40:15;;;;;;;2.13;0.77;;;21.00;82.20;;;;;;5072229;28;20025;-64
2021/11/02 15:42:44;;;;;;;1.25;0.55;;;21.00;82.10;;;;;;5076391;28;20029;-60
2021/11/02 15:45:35;;;;;;;1.67;0.60;;;21.00;82.20;;;;;;5076178;28;20056;-63
2021/11/02 15:48:10;;;;;;;3.30;0.70;;;21.00;82.20;;;;;;5076256;28;20036;-66
2021/11/02 15:50:47;;;;;;;3.72;0.82;;;21.00;82.20;;;;;;5076644;28;20115;-64
2021/11/02 15:53:18;;;;;;;1.33;0.60;;;21.00;82.00;;;;;;5075926;28;20136;-63
2021/11/02 15:55:45;;;;;;;2.58;0.80;;;20.90;82.10;;;;;;5076198;28;20399;-63
2021/11/02 15:58:14;;;;;;;4.13;1.00;;;21.00;82.20;;;;;;5075898;28;20387;-64
2021/11/02 16:00:45;;;;;;;3.83;0.70;;;20.90;82.10;;;;;;5075990;28;20029;-62
2021/11/02 16:03:16;;;;;;;2.35;0.88;;;21.00;82.20;;;;;;5076348;28;20025;-64
2021/11/02 16:05:45;;;;;;;1.30;0.52;;;21.00;82.10;;;;;;5076151;28;20426;-66
2021/11/02 16:08:21;;;;;;;2.22;0.77;;;21.00;82.10;;;;;;5075432;28;20032;-61
2021/11/02 16:11:09;;;;;;;1.33;0.60;;;21.00;82.20;;;;;;5076041;28;20064;-65
2021/11/02 16:13:36;;;;;;;2.38;1.08;;;21.00;82.20;;;;;;5075623;28;20024;-65
2021/11/02 16:16:06;;;;;;;2.53;1.10;;;20.90;82.10;;;;;;5075600;28;20466;-62
2021/11/02 16:18:37;;;;;;;1.90;1.00;;;20.90;82.10;;;;;;5075905;28;20387;-63
2021/11/02 16:21:06;;;;;;;1.73;0.60;;;20.90;82.10;;;;;;5075683;28;20086;-64
2021/11/02 16:23:45;;;;;;;2.13;0.75;;;20.90;82.10;;;;;;5075791;28;20020;-61
2021/11/02 16:26:18;;;;;;;2.55;0.88;;;20.90;82.10;;;;;;5074103;28;20119;-64
2021/11/02 16:28:46;;;;;;;2.35;0.80;;;20.90;82.10;;;;;;5075709;28;20043;-64
2021/11/02 16:31:28;;;;;;;1.50;0.75;;;20.90;82.10;;;;;;5075534;28;20043;-62
2021/11/02 16:33:56;;;;;;;3.45;0.70;;;20.90;82.10;;;;;;5075303;28;20017;-58
2021/11/02 16:36:28;;;;;;;2.40;0.98;;;20.90;82.10;;;;;;5075537;28;20039;-63
2021/11/02 16:38:57;;;;;;;4.55;0.90;;;20.90;82.10;;;;;;5075432;28;20438;-65
2021/11/02 16:41:27;;;;;;;1.63;0.50;;;20.90;82.20;;;;;;5075272;28;20025;-64
2021/11/02 16:44:03;;;;;;;2.10;0.60;;;20.90;82.10;;;;;;5075068;28;20090;-62
2021/11/02 16:46:43;;;;;;;3.08;0.60;;;20.90;82.10;;;;;;5075189;28;20079;-62
2021/11/02 16:49:22;;;;;;;2.15;1.08;;;20.90;82.10;;;;;;5073068;28;20382;-64
2021/11/02 16:51:53;;;;;;;2.10;0.82;;;20.90;82.20;;;;;;5072829;28;20032;-63
2021/11/02 16:54:33;;;;;;;2.58;0.63;;;20.90;82.20;;;;;;5074789;28;20112;-63
2021/11/02 16:57:04;;;;;;;2.25;0.73;;;20.90;82.10;;;;;;5074788;28;20045;-65
2021/11/02 17:00:06;;;;;;;3.00;0.90;;;20.90;82.00;;;;;;5074711;28;20086;-65
2021/11/02 17:02:39;;;;;;;2.40;0.93;;;20.90;82.00;;;;;;5049257;28;20113;-65
2021/11/02 17:05:17;;;;;;;0.80;0.40;;;20.80;82.00;;;;;;5074238;28;20032;-65
2021/11/02 17:08:07;;;;;;;1.77;0.50;;;20.80;81.90;;;;;;5074565;28;20029;-64
2021/11/02 17:10:38;;;;;;;2.20;0.80;;;20.80;81.80;;;;;;5074667;28;20383;-64
2021/11/02 17:13:15;;;;;;;5.50;1.30;;;20.90;82.00;;;;;;5074433;28;20509;-65
2021/11/02 17:15:47;;;;;;;1.77;0.70;;;20.80;81.90;;;;;;5074297;28;20028;-65
2021/11/02 17:18:17;;;;;;;2.25;0.63;;;20.80;81.90;;;;;;5074458;28;20021;-64
2021/11/02 17:20:47;;;;;;;1.65;0.70;;;20.80;81.80;;;;;;5073076;28;20029;-64
2021/11/02 17:23:23;;;;;;;4.18;0.68;;;20.80;81.90;;;;;;5074008;28;20020;-66
2021/11/02 17:25:51;;;;;;;2.55;0.93;;;20.80;81.80;;;;;;5073991;28;20033;-63
2021/11/02 17:28:19;;;;;;;1.27;0.60;;;20.80;81.80;;;;;;5074242;28;20099;-64
2021/11/02 17:30:47;;;;;;;2.22;0.85;;;20.80;81.80;;;;;;5073851;28;20498;-61
2021/11/02 17:33:17;;;;;;;2.15;0.52;;;20.80;81.80;;;;;;5073677;28;20021;-64
2021/11/02 17:35:47;;;;;;;3.60;1.13;;;20.80;81.80;;;;;;5073931;28;20031;-65
2021/11/02 17:38:16;;;;;;;2.75;0.65;;;20.80;81.80;;;;;;5072600;28;20025;-65
2021/11/02 17:40:43;;;;;;;1.95;0.68;;;20.80;81.80;;;;;;5074030;28;20029;-66
2021/11/02 17:43:11;;;;;;;1.65;0.70;;;20.80;81.80;;;;;;5073702;28;20392;-64
2021/11/02 17:45:38;;;;;;;2.08;0.68;;;20.80;81.80;;;;;;5073450;28;20035;-64
2021/11/02 17:48:06;;;;;;;3.22;0.70;;;20.80;81.80;;;;;;5073746;28;20020;-64
2021/11/02 17:50:35;;;;;;;1.65;0.55;;;20.80;81.80;;;;;;5073942;28;20033;-65
2021/11/02 17:53:03;;;;;;;4.35;0.80;;;20.80;81.80;;;;;;5074215;28;20103;-66
2021/11/02 17:55:30;;;;;;;2.28;0.77;;;20.80;81.80;;;;;;5073792;28;20057;-67
2021/11/02 17:58:00;;;;;;;2.58;1.10;;;20.70;81.80;;;;;;5074056;28;20044;-66
2021/11/02 18:00:28;;;;;;;2.35;0.80;;;20.80;81.80;;;;;;5073855;28;20035;-65
2021/11/02 18:02:57;;;;;;;1.92;0.70;;;20.70;81.80;;;;;;5073991;28;20028;-65
2021/11/02 18:05:27;;;;;;;2.90;0.90;;;20.80;81.80;;;;;;5073902;28;20433;-65
2021/11/02 18:07:56;;;;;;;2.15;0.50;;;20.70;81.70;;;;;;5074426;28;20035;-64
2021/11/02 18:10:28;;;;;;;1.73;0.60;;;20.70;81.80;;;;;;5073920;28;20063;-65
2021/11/02 18:12:56;;;;;;;1.83;0.85;;;20.70;81.80;;;;;;5071023;28;20034;-65
2021/11/02 18:15:24;;;;;;;2.92;1.17;;;20.70;81.80;;;;;;5073349;28;20036;-64
2021/11/02 18:17:53;;;;;;;1.35;0.70;;;20.70;81.70;;;;;;5073390;28;20028;-65
2021/11/02 18:20:23;;;;;;;2.13;0.93;;;20.70;81.70;;;;;;5073668;28;20032;-66
2021/11/02 18:22:53;;;;;;;1.55;0.40;;;20.70;81.70;;;;;;5073759;28;20080;-65
2021/11/02 18:25:23;;;;;;;2.47;0.85;;;20.70;81.70;;;;;;5073204;28;20035;-65
2021/11/02 18:27:52;;;;;;;1.02;0.40;;;20.70;81.80;;;;;;5073016;28;20475;-65
2021/11/02 18:30:22;;;;;;;2.08;0.52;;;20.70;81.70;;;;;;5073381;28;20515;-64
2021/11/02 18:32:49;;;;;;;3.72;0.85;;;20.70;81.70;;;;;;5073414;28;20036;-64
2021/11/02 18:35:18;;;;;;;2.13;0.50;;;20.70;81.70;;;;;;5073814;28;20033;-66
2021/11/02 18:37:47;;;;;;;2.10;0.60;;;20.70;81.70;;;;;;5073913;28;20131;-65
2021/11/02 18:40:23;;;;;;;2.22;0.70;;;20.70;81.70;;;;;;5073974;28;20025;-65
2021/11/02 18:42:53;;;;;;;1.75;0.80;;;20.70;81.70;;;;;;5073589;28;20107;-65